createdAt,value
2018-10-16T16:01:00.665Z,6.10
2018-10-16T16:03:28.840Z,6.73
2018-10-16T16:05:57.010Z,6.43
2018-10-16T16:08:25.203Z,6.33
2018-10-16T16:10:53.362Z,6.60
2018-10-16T16:13:21.593Z,7.40
2018-10-16T16:15:49.762Z,8.10
2018-10-16T16:18:17.977Z,7.70
2018-10-16T16:20:46.082Z,7.00
2018-10-16T16:23:14.242Z,6.90
2018-10-16T16:25:42.421Z,6.63
2018-10-16T16:28:10.702Z,7.63
2018-10-16T16:30:38.781Z,6.73
2018-10-16T16:33:06.966Z,6.50
2018-10-16T16:35:35.117Z,6.70
2018-10-16T16:38:03.366Z,7.13
2018-10-16T16:40:31.479Z,6.40
2018-10-16T16:42:59.649Z,7.20
2018-10-16T16:45:27.842Z,7.90
2018-10-16T16:47:55.988Z,6.97
2018-10-16T16:50:24.156Z,6.37
2018-10-16T16:52:52.442Z,5.97
2018-10-16T16:55:21.627Z,6.10
2018-10-16T16:57:50.665Z,6.70
2018-10-16T17:00:18.792Z,7.33
2018-10-16T17:02:46.991Z,6.90
2018-10-16T17:05:15.449Z,6.70
2018-10-16T17:07:44.140Z,7.13
2018-10-16T17:10:12.385Z,6.90
2018-10-16T17:12:41.134Z,6.53
2018-10-16T17:15:11.346Z,7.17
2018-10-16T17:17:39.539Z,7.30
2018-10-16T17:20:08.469Z,7.33
2018-10-16T17:22:36.810Z,7.10
2018-10-16T17:25:05.843Z,7.33
2018-10-16T17:27:33.910Z,6.03
2018-10-16T17:30:02.085Z,7.23
2018-10-16T17:32:30.238Z,6.57
2018-10-16T17:34:58.417Z,6.93
2018-10-16T17:37:26.562Z,5.67
2018-10-16T17:39:54.736Z,7.27
2018-10-16T17:42:22.944Z,6.67
2018-10-16T17:44:51.198Z,7.00
2018-10-16T17:47:19.378Z,6.93
2018-10-16T17:49:47.546Z,7.60
2018-10-16T17:52:15.689Z,6.73
2018-10-16T17:54:43.873Z,7.17
2018-10-16T17:57:12.065Z,6.83
2018-10-16T17:59:40.224Z,6.83
2018-10-16T18:02:08.421Z,6.53
2018-10-16T18:04:36.723Z,8.07
2018-10-16T18:07:05.120Z,6.60
2018-10-16T18:09:33.297Z,7.50
2018-10-16T18:12:01.538Z,8.80
2018-10-16T18:14:29.696Z,8.83
2018-10-16T18:16:57.873Z,7.13
2018-10-16T18:19:26.044Z,8.83
2018-10-16T18:21:54.221Z,8.43
2018-10-16T18:24:22.434Z,7.57
2018-10-16T18:26:50.663Z,8.40
2018-10-16T18:29:18.791Z,8.73
2018-10-16T18:31:46.941Z,8.27
2018-10-16T18:34:15.125Z,9.10
2018-10-16T18:36:43.297Z,9.17
2018-10-16T18:39:11.508Z,9.00
2018-10-16T18:41:39.688Z,9.30
2018-10-16T18:44:07.887Z,8.17
2018-10-16T18:46:36.072Z,8.40
2018-10-16T18:49:04.245Z,9.70
2018-10-16T18:51:32.452Z,9.13
2018-10-16T18:54:00.689Z,13.00
2018-10-16T18:56:28.907Z,9.70
2018-10-16T18:58:57.102Z,9.33
2018-10-16T19:01:25.344Z,9.70
2018-10-16T19:03:53.560Z,9.23
2018-10-16T19:06:21.781Z,9.60
2018-10-16T19:08:50.059Z,8.07
2018-10-16T19:11:18.266Z,9.43
2018-10-16T19:13:46.487Z,9.23
2018-10-16T19:16:14.612Z,9.43
2018-10-16T19:18:42.793Z,9.63
2018-10-16T19:21:11.034Z,9.20
2018-10-16T19:23:39.117Z,9.67
2018-10-16T19:26:07.301Z,9.53
2018-10-16T19:28:35.445Z,9.50
2018-10-16T19:31:03.702Z,10.03
2018-10-16T19:33:31.881Z,10.27
2018-10-16T19:36:00.057Z,10.47
2018-10-16T19:38:28.268Z,11.13
2018-10-16T19:40:56.444Z,11.37
2018-10-16T19:43:24.673Z,11.87
2018-10-16T19:45:52.844Z,12.87
2018-10-16T19:48:21.041Z,12.10
2018-10-16T19:50:49.231Z,12.80
2018-10-16T19:53:17.417Z,11.53
2018-10-16T19:55:45.588Z,12.40
2018-10-16T19:58:13.756Z,11.63
2018-10-16T20:00:41.931Z,10.57
2018-10-16T20:03:10.171Z,11.17
2018-10-16T20:05:38.264Z,11.17
2018-10-16T20:08:06.419Z,12.10
2018-10-16T20:10:34.622Z,12.03
2018-10-16T20:13:02.745Z,12.00
2018-10-16T20:15:30.977Z,11.80
2018-10-16T20:17:59.105Z,11.67
2018-10-16T20:20:27.278Z,10.90
2018-10-16T20:22:55.461Z,11.90
2018-10-16T20:25:23.738Z,12.33
2018-10-16T20:27:51.811Z,12.03
2018-10-16T20:30:19.978Z,11.70
2018-10-16T20:32:48.164Z,12.60
2018-10-16T20:35:16.322Z,11.13
2018-10-16T20:37:44.501Z,12.10
2018-10-16T20:40:12.681Z,12.63
2018-10-16T20:42:40.846Z,12.27
2018-10-16T20:45:09.040Z,12.53
2018-10-16T20:47:37.654Z,12.60
2018-10-16T20:50:06.341Z,13.83
2018-10-16T20:52:34.512Z,14.17
2018-10-16T20:55:02.711Z,13.30
2018-10-16T20:57:30.909Z,13.50
2018-10-16T20:59:59.397Z,12.60
2018-10-16T21:02:27.565Z,12.40
2018-10-16T21:04:55.939Z,13.40
2018-10-16T21:07:24.021Z,13.20
2018-10-16T21:09:52.198Z,13.57
2018-10-16T21:12:20.373Z,13.10
2018-10-16T21:14:48.688Z,13.83
2018-10-16T21:17:16.864Z,13.53
2018-10-16T21:19:45.025Z,13.50
2018-10-16T21:22:13.600Z,12.17
2018-10-16T21:24:41.760Z,11.10
2018-10-16T21:27:12.084Z,12.60
2018-10-16T21:29:40.360Z,12.20
2018-10-16T21:32:09.160Z,12.70
2018-10-16T21:34:37.322Z,11.70
2018-10-16T21:37:05.582Z,11.83
2018-10-16T21:39:33.672Z,12.03
2018-10-16T21:42:01.904Z,11.90
2018-10-16T21:44:30.071Z,12.50
2018-10-16T21:46:58.277Z,11.90
2018-10-16T21:49:26.504Z,13.33
2018-10-16T21:51:54.617Z,13.43
2018-10-16T21:54:23.027Z,13.00
2018-10-16T21:56:51.212Z,13.60
2018-10-16T21:59:19.467Z,13.90
